Time;durP1;ratioP1;P1;durP2;ratioP2;P2;SDS_P1;SDS_P2;PMS_P1;PMS_P2;Temp;Humidity;BMP_temperature;BMP_pressure;BME280_temperature;BME280_humidity;BME280_pressure;Samples;Min_cycle;Max_cycle;Signal;HPM_P1;HPM_P2
2023/08/20 00:00:14;;;;;;;6.88;2.17;;;16.60;99.90;;;;;;5075071;28;20088;-79
2023/08/20 00:02:42;;;;;;;5.95;2.80;;;16.60;99.90;;;;;;5077306;28;20447;-79
2023/08/20 00:05:09;;;;;;;8.40;3.25;;;16.50;99.90;;;;;;5066167;28;20084;-79
2023/08/20 00:07:35;;;;;;;6.57;3.00;;;16.50;99.90;;;;;;5054126;28;20074;-80
2023/08/20 00:10:00;;;;;;;7.32;2.70;;;16.50;99.90;;;;;;5070276;28;20032;-79
2023/08/20 00:12:26;;;;;;;6.13;2.60;;;16.40;99.90;;;;;;5071647;28;20407;-80
2023/08/20 00:14:58;;;;;;;6.93;2.50;;;16.50;99.90;;;;;;5071099;28;20039;-80
2023/08/20 00:17:26;;;;;;;4.93;2.67;;;16.40;99.90;;;;;;5071879;28;20036;-80
2023/08/20 00:19:53;;;;;;;6.28;2.97;;;16.40;99.90;;;;;;5097758;28;20036;-79
2023/08/20 00:22:19;;;;;;;6.70;3.00;;;16.40;99.90;;;;;;5072574;28;20406;-79
2023/08/20 00:24:45;;;;;;;4.80;2.75;;;16.30;99.90;;;;;;5071350;28;20071;-79
2023/08/20 00:27:10;;;;;;;5.35;2.50;;;16.30;99.90;;;;;;5055240;28;20067;-79
2023/08/20 00:29:36;;;;;;;5.20;2.75;;;16.20;99.90;;;;;;5072099;28;20081;-79
2023/08/20 00:32:02;;;;;;;7.20;2.85;;;16.10;99.90;;;;;;5071224;28;20487;-79
2023/08/20 00:34:27;;;;;;;6.75;3.08;;;16.10;99.90;;;;;;5070408;28;20028;-79
2023/08/20 00:36:53;;;;;;;7.60;3.22;;;16.10;99.90;;;;;;5065927;28;20066;-79
2023/08/20 00:39:18;;;;;;;6.07;3.30;;;16.10;99.90;;;;;;5068258;28;20039;-79
2023/08/20 00:41:44;;;;;;;8.10;3.05;;;16.20;99.90;;;;;;5059087;28;20036;-79
2023/08/20 00:44:09;;;;;;;5.47;3.05;;;16.10;99.90;;;;;;5065921;28;20066;-78
2023/08/20 00:46:35;;;;;;;7.00;2.92;;;16.10;99.90;;;;;;5072802;28;20488;-79
2023/08/20 00:49:01;;;;;;;5.28;3.22;;;16.10;99.90;;;;;;5083323;28;20040;-79
2023/08/20 00:51:28;;;;;;;8.20;3.50;;;16.10;99.90;;;;;;5072716;28;20036;-79
2023/08/20 00:53:54;;;;;;;6.00;3.05;;;16.10;99.90;;;;;;5075228;28;20036;-79
2023/08/20 00:56:20;;;;;;;7.35;3.30;;;16.10;99.90;;;;;;5076475;28;20032;-80
2023/08/20 00:58:46;;;;;;;6.55;2.85;;;16.10;99.90;;;;;;5060486;28;20057;-80
2023/08/20 01:01:11;;;;;;;6.35;3.33;;;16.10;99.90;;;;;;5086929;28;20040;-79
2023/08/20 01:03:37;;;;;;;7.20;3.50;;;16.10;99.90;;;;;;5074855;28;20032;-79
2023/08/20 01:06:36;;;;;;;11.15;4.03;;;16.10;99.90;;;;;;5075805;28;20115;-79
2023/08/20 01:09:11;;;;;;;6.38;3.20;;;16.10;99.90;;;;;;5080498;28;20032;-79
2023/08/20 01:11:46;;;;;;;5.95;2.80;;;16.10;99.90;;;;;;5075662;28;20036;-79
2023/08/20 01:14:16;;;;;;;6.45;2.95;;;16.10;99.90;;;;;;5076797;28;20491;-79
2023/08/20 01:16:42;;;;;;;6.82;3.00;;;16.10;99.90;;;;;;5075013;28;20440;-79
2023/08/20 01:19:16;;;;;;;6.03;3.47;;;15.90;99.90;;;;;;5079344;28;20040;-79
2023/08/20 01:21:54;;;;;;;6.43;3.15;;;15.90;99.90;;;;;;5074418;28;20403;-79
2023/08/20 01:24:57;;;;;;;11.15;3.42;;;15.90;99.90;;;;;;5071439;28;20036;-79
2023/08/20 01:27:26;;;;;;;9.85;3.40;;;15.90;99.90;;;;;;5074588;28;20035;-79
2023/08/20 01:29:52;;;;;;;8.85;3.22;;;15.80;99.90;;;;;;5074441;28;20028;-79
2023/08/20 01:32:19;;;;;;;6.75;3.70;;;15.90;99.90;;;;;;5073877;28;20379;-79
2023/08/20 01:34:45;;;;;;;6.22;3.10;;;15.90;99.90;;;;;;5081513;28;20059;-79
2023/08/20 01:37:11;;;;;;;6.68;3.40;;;15.90;99.90;;;;;;5075058;28;20040;-79
2023/08/20 01:39:36;;;;;;;7.85;3.72;;;15.90;99.90;;;;;;5078413;28;20122;-80
2023/08/20 01:42:02;;;;;;;8.57;3.50;;;15.80;99.90;;;;;;5074287;28;20043;-79
2023/08/20 01:44:28;;;;;;;7.28;3.28;;;15.80;99.90;;;;;;5077152;28;20039;-79
2023/08/20 01:46:53;;;;;;;8.77;3.30;;;15.80;99.90;;;;;;5072979;28;20044;-79
2023/08/20 01:49:19;;;;;;;7.80;3.55;;;15.80;99.90;;;;;;5058059;28;20032;-80
2023/08/20 01:51:44;;;;;;;10.07;3.78;;;15.80;99.90;;;;;;5073804;28;20135;-79
2023/08/20 01:54:10;;;;;;;7.13;3.85;;;15.80;99.90;;;;;;5074100;28;20444;-79
2023/08/20 01:56:35;;;;;;;6.30;3.30;;;15.80;99.90;;;;;;5073181;28;20040;-79
2023/08/20 01:59:02;;;;;;;10.05;3.83;;;15.70;99.90;;;;;;5074648;28;20077;-80
2023/08/20 02:01:27;;;;;;;10.20;4.10;;;15.70;99.90;;;;;;5065547;28;20060;-79
2023/08/20 02:03:53;;;;;;;7.90;3.83;;;15.70;99.90;;;;;;5071305;28;20128;-79
2023/08/20 02:06:19;;;;;;;4.35;3.03;;;15.70;99.90;;;;;;5065013;28;20308;-79
2023/08/20 02:08:44;;;;;;;10.30;4.00;;;15.70;99.90;;;;;;5068972;28;20502;-79
2023/08/20 02:11:10;;;;;;;6.57;3.80;;;15.70;99.90;;;;;;5087374;28;20036;-79
2023/08/20 02:13:35;;;;;;;9.82;4.13;;;15.70;99.90;;;;;;5070530;28;20039;-79
2023/08/20 02:16:03;;;;;;;6.70;3.70;;;15.60;99.90;;;;;;5066360;28;20035;-79
2023/08/20 02:18:29;;;;;;;9.85;3.97;;;15.70;99.90;;;;;;5070625;28;20036;-79
2023/08/20 02:20:55;;;;;;;8.18;4.72;;;15.60;99.90;;;;;;5068413;28;20028;-79
2023/08/20 02:23:21;;;;;;;9.30;4.50;;;15.70;99.90;;;;;;5068093;28;20036;-79
2023/08/20 02:25:47;;;;;;;10.30;4.82;;;15.60;99.90;;;;;;5062376;28;20498;-79
2023/08/20 02:28:12;;;;;;;7.50;3.72;;;15.60;99.90;;;;;;5064326;28;20112;-79
2023/08/20 02:30:45;;;;;;;8.75;4.18;;;15.70;99.90;;;;;;5064294;28;20123;-80
2023/08/20 02:33:11;;;;;;;9.03;4.57;;;15.60;99.90;;;;;;5065991;28;20032;-79
2023/08/20 02:35:38;;;;;;;7.75;4.43;;;15.60;99.90;;;;;;5073385;28;20394;-79
2023/08/20 02:38:04;;;;;;;9.18;4.53;;;15.60;99.90;;;;;;5064736;28;20089;-79
2023/08/20 02:40:30;;;;;;;13.65;5.22;;;15.60;99.90;;;;;;5064389;28;20032;-80
2023/08/20 02:42:56;;;;;;;9.98;5.18;;;15.60;99.90;;;;;;5069511;28;20557;-79
2023/08/20 02:45:21;;;;;;;12.75;5.80;;;15.50;99.90;;;;;;5083571;28;20062;-79
2023/08/20 02:47:48;;;;;;;10.45;5.70;;;15.50;99.90;;;;;;5063667;28;20099;-79
2023/08/20 02:50:14;;;;;;;12.63;6.03;;;15.50;99.90;;;;;;5063695;28;20495;-79
2023/08/20 02:52:42;;;;;;;12.52;6.53;;;15.50;99.90;;;;;;5067285;28;20039;-79
2023/08/20 02:55:07;;;;;;;11.02;6.68;;;15.50;99.90;;;;;;5068981;28;20073;-79
2023/08/20 02:57:33;;;;;;;15.75;6.35;;;15.50;99.90;;;;;;5064335;28;20419;-79
2023/08/20 02:59:58;;;;;;;9.57;5.78;;;15.50;99.90;;;;;;5061574;28;20082;-79
2023/08/20 03:02:24;;;;;;;8.70;5.15;;;15.50;99.90;;;;;;5072170;28;20497;-79
2023/08/20 03:04:49;;;;;;;9.35;5.10;;;15.50;99.90;;;;;;5063784;28;20512;-78
2023/08/20 03:07:15;;;;;;;9.77;5.05;;;15.40;99.90;;;;;;5066130;28;20043;-79
2023/08/20 03:09:41;;;;;;;7.65;5.38;;;15.40;99.90;;;;;;5069102;28;20106;-79
2023/08/20 03:12:07;;;;;;;7.72;5.20;;;15.40;99.90;;;;;;5066421;28;20032;-79
2023/08/20 03:14:32;;;;;;;11.57;5.90;;;15.40;99.90;;;;;;5076382;28;20034;-79
2023/08/20 03:16:58;;;;;;;8.52;5.10;;;15.40;99.90;;;;;;5068050;28;20032;-78
2023/08/20 03:19:23;;;;;;;9.60;5.45;;;15.40;99.90;;;;;;5063821;28;20039;-78
2023/08/20 03:21:49;;;;;;;8.75;5.72;;;15.40;99.90;;;;;;5060307;28;20036;-79
2023/08/20 03:24:14;;;;;;;9.15;5.30;;;15.40;99.90;;;;;;5058977;28;20453;-78
2023/08/20 03:26:40;;;;;;;10.50;5.38;;;15.40;99.90;;;;;;5062520;28;20041;-79
2023/08/20 03:29:05;;;;;;;12.25;5.22;;;15.40;99.90;;;;;;5064036;28;20032;-79
2023/08/20 03:31:31;;;;;;;13.20;6.25;;;15.40;99.90;;;;;;5064532;28;20029;-78
2023/08/20 03:33:57;;;;;;;10.43;5.80;;;15.30;99.90;;;;;;5067961;28;20036;-79
2023/08/20 03:36:22;;;;;;;9.45;5.47;;;15.30;99.90;;;;;;5069888;28;20034;-78
2023/08/20 03:38:48;;;;;;;11.35;6.50;;;15.30;99.90;;;;;;5060264;28;20040;-78
2023/08/20 03:41:14;;;;;;;10.50;5.88;;;15.20;99.90;;;;;;5071921;28;20040;-78
2023/08/20 03:43:39;;;;;;;11.60;5.90;;;15.20;99.90;;;;;;5064739;28;20028;-77
2023/08/20 03:46:05;;;;;;;11.38;5.70;;;15.20;99.90;;;;;;5069181;28;20388;-78
2023/08/20 03:48:30;;;;;;;8.50;5.28;;;15.10;99.90;;;;;;5067349;28;20507;-79
2023/08/20 03:50:56;;;;;;;8.85;5.30;;;15.10;99.90;;;;;;5072127;28;20054;-78
2023/08/20 03:53:22;;;;;;;9.55;5.80;;;15.10;99.90;;;;;;5055443;28;20028;-77
2023/08/20 03:55:51;;;;;;;12.60;6.35;;;15.10;99.90;;;;;;5061285;28;20079;-77
2023/08/20 03:58:17;;;;;;;12.38;6.05;;;15.00;99.90;;;;;;5067244;28;20039;-77
2023/08/20 04:00:43;;;;;;;11.40;6.38;;;15.00;99.90;;;;;;5067447;28;20043;-77
2023/08/20 04:03:09;;;;;;;9.20;6.07;;;15.00;99.90;;;;;;5061541;28;20051;-77
2023/08/20 04:05:38;;;;;;;8.98;5.15;;;15.00;99.90;;;;;;5068715;28;20040;-77
2023/08/20 04:08:05;;;;;;;12.02;6.28;;;15.00;99.90;;;;;;5063776;28;20040;-78
2023/08/20 04:10:31;;;;;;;12.77;6.68;;;15.10;99.90;;;;;;5063298;28;20345;-77
2023/08/20 04:12:56;;;;;;;11.77;6.30;;;15.00;99.90;;;;;;5072086;28;20054;-78
2023/08/20 04:15:22;;;;;;;11.93;6.05;;;15.00;99.90;;;;;;5060244;28;20032;-78
2023/08/20 04:17:48;;;;;;;9.75;5.78;;;15.00;99.90;;;;;;5072302;28;20158;-78
2023/08/20 04:20:14;;;;;;;7.28;5.32;;;15.00;99.90;;;;;;5072391;28;20051;-78
2023/08/20 04:22:40;;;;;;;9.63;6.22;;;15.00;99.90;;;;;;5072781;28;20040;-77
2023/08/20 04:25:06;;;;;;;8.02;5.35;;;15.00;99.90;;;;;;5072399;28;20034;-78
2023/08/20 04:27:32;;;;;;;11.20;6.10;;;15.00;99.90;;;;;;5072739;28;20521;-78
2023/08/20 04:29:58;;;;;;;7.93;5.05;;;15.10;99.90;;;;;;5076775;28;20032;-78
2023/08/20 04:32:23;;;;;;;8.98;5.22;;;15.10;99.90;;;;;;5076582;28;20127;-77
2023/08/20 04:34:51;;;;;;;9.63;6.10;;;15.10;99.90;;;;;;5076452;28;20054;-77
2023/08/20 04:37:18;;;;;;;11.43;5.15;;;15.10;99.90;;;;;;5075822;28;20495;-77
2023/08/20 04:39:44;;;;;;;9.35;5.57;;;15.10;99.90;;;;;;5076492;28;20051;-77
2023/08/20 04:42:09;;;;;;;7.13;4.82;;;15.10;99.90;;;;;;5076218;28;20036;-77
2023/08/20 04:44:35;;;;;;;8.23;5.30;;;15.10;99.90;;;;;;5065144;28;20672;-77
2023/08/20 04:47:01;;;;;;;11.02;5.25;;;15.10;99.90;;;;;;5073683;28;20135;-77
2023/08/20 04:49:28;;;;;;;8.65;5.50;;;15.10;99.90;;;;;;5090734;28;20066;-77
2023/08/20 04:51:54;;;;;;;8.38;5.28;;;15.20;99.90;;;;;;5074105;28;20453;-78
2023/08/20 04:54:19;;;;;;;8.77;5.22;;;15.20;99.90;;;;;;5057658;28;20032;-77
2023/08/20 04:56:45;;;;;;;11.73;5.65;;;15.20;99.90;;;;;;5074407;28;20048;-77
2023/08/20 04:59:11;;;;;;;8.18;4.65;;;15.20;99.90;;;;;;5074722;28;20104;-77
2023/08/20 05:01:38;;;;;;;8.80;4.60;;;15.30;99.90;;;;;;5068028;28;20051;-77
2023/08/20 05:04:03;;;;;;;10.02;5.43;;;15.30;99.90;;;;;;5073417;28;20032;-77
2023/08/20 05:06:29;;;;;;;8.75;4.60;;;15.30;99.90;;;;;;5074699;28;20028;-77
2023/08/20 05:08:54;;;;;;;8.55;4.43;;;15.40;99.90;;;;;;5074627;28;20503;-77
2023/08/20 05:11:20;;;;;;;8.32;4.93;;;15.40;99.90;;;;;;5069427;28;20488;-77
2023/08/20 05:13:47;;;;;;;9.40;5.25;;;15.40;99.90;;;;;;5075157;28;20104;-77
2023/08/20 05:16:12;;;;;;;8.90;5.05;;;15.50;99.90;;;;;;5058401;28;20373;-78
2023/08/20 05:18:38;;;;;;;11.50;5.47;;;15.60;99.90;;;;;;5074647;28;20117;-77
2023/08/20 05:21:03;;;;;;;12.38;5.00;;;15.60;99.90;;;;;;5070923;28;20513;-77
2023/08/20 05:23:29;;;;;;;9.00;4.90;;;15.70;99.90;;;;;;5071244;28;20043;-77
2023/08/20 05:25:54;;;;;;;8.98;5.03;;;15.70;99.90;;;;;;5091262;28;20036;-78
2023/08/20 05:28:20;;;;;;;9.50;4.75;;;15.80;99.90;;;;;;5073366;28;20039;-78
2023/08/20 05:30:55;;;;;;;8.45;4.78;;;15.80;99.90;;;;;;5092195;28;20047;-78
2023/08/20 05:33:20;;;;;;;10.25;5.10;;;15.90;99.90;;;;;;5096722;28;20032;-79
2023/08/20 05:35:46;;;;;;;8.00;4.55;;;15.90;99.90;;;;;;5076345;28;20495;-78
2023/08/20 05:38:11;;;;;;;7.63;4.63;;;16.10;99.90;;;;;;5078006;28;20047;-78
2023/08/20 05:40:38;;;;;;;7.82;4.20;;;16.10;99.90;;;;;;5076154;28;20491;-79
2023/08/20 05:43:04;;;;;;;7.90;4.35;;;16.20;99.90;;;;;;5068511;28;20044;-78
2023/08/20 05:45:29;;;;;;;9.60;4.50;;;16.30;99.90;;;;;;5068920;28;20493;-79
2023/08/20 05:47:55;;;;;;;10.43;4.72;;;16.40;99.90;;;;;;5085352;28;20494;-79
2023/08/20 05:50:20;;;;;;;10.80;5.32;;;16.40;99.90;;;;;;5069868;28;20048;-79
2023/08/20 05:52:46;;;;;;;9.68;4.80;;;16.50;99.90;;;;;;5081143;28;20036;-79
2023/08/20 05:55:11;;;;;;;10.35;5.10;;;16.60;99.90;;;;;;5075051;28;20078;-79
2023/08/20 05:57:37;;;;;;;9.23;4.75;;;16.70;99.90;;;;;;5062455;28;20074;-79
2023/08/20 06:00:04;;;;;;;9.98;4.78;;;16.80;99.90;;;;;;5071373;28;20032;-80
2023/08/20 06:02:30;;;;;;;8.80;5.00;;;16.80;99.90;;;;;;5070201;28;20040;-78
2023/08/20 06:04:55;;;;;;;11.18;4.95;;;16.90;99.90;;;;;;5076055;28;20101;-78
2023/08/20 06:07:21;;;;;;;9.80;4.85;;;17.00;99.90;;;;;;5072916;28;20040;-79
2023/08/20 06:09:46;;;;;;;10.95;5.13;;;17.10;99.90;;;;;;5073238;28;20040;-79
2023/08/20 06:12:12;;;;;;;11.68;5.10;;;17.20;99.90;;;;;;5073732;28;20491;-80
2023/08/20 06:14:38;;;;;;;9.75;4.57;;;17.30;99.90;;;;;;5074124;28;20028;-79
2023/08/20 06:17:03;;;;;;;8.93;4.95;;;17.40;99.90;;;;;;5073942;28;20048;-79
2023/08/20 06:19:29;;;;;;;11.57;4.55;;;17.50;99.90;;;;;;5057295;28;20042;-79
2023/08/20 06:21:54;;;;;;;9.82;4.82;;;17.60;99.90;;;;;;5074052;28;20040;-79
2023/08/20 06:24:20;;;;;;;10.75;5.40;;;17.60;99.90;;;;;;5074161;28;20036;-79
2023/08/20 06:26:45;;;;;;;11.20;4.85;;;17.80;99.90;;;;;;5057019;28;20043;-79
2023/08/20 06:29:11;;;;;;;7.28;5.05;;;17.90;99.90;;;;;;5063568;28;20035;-79
2023/08/20 06:31:36;;;;;;;12.00;4.75;;;18.00;99.90;;;;;;5073367;28;20040;-79
2023/08/20 06:34:02;;;;;;;7.03;4.40;;;18.10;99.90;;;;;;5073847;28;20072;-79
2023/08/20 06:36:28;;;;;;;7.85;4.57;;;18.20;99.90;;;;;;5063313;28;20036;-80
2023/08/20 06:38:53;;;;;;;8.27;4.28;;;18.30;99.90;;;;;;5056992;28;20039;-79
2023/08/20 06:41:19;;;;;;;10.68;4.85;;;18.40;99.90;;;;;;5068417;28;20663;-80
2023/08/20 06:43:44;;;;;;;11.27;4.38;;;18.50;99.90;;;;;;5070574;28;20043;-80
2023/08/20 06:46:10;;;;;;;7.90;4.35;;;18.60;99.90;;;;;;5065374;28;20570;-80
2023/08/20 06:48:35;;;;;;;8.18;4.05;;;18.70;99.90;;;;;;5066961;28;20032;-80
2023/08/20 06:51:15;;;;;;;12.85;4.28;;;18.80;99.90;;;;;;5072156;28;20041;-80
2023/08/20 06:53:40;;;;;;;10.35;4.25;;;19.00;99.90;;;;;;5071705;28;20036;-80
2023/08/20 06:56:08;;;;;;;10.55;4.32;;;19.00;99.90;;;;;;5073877;28;20028;-80
2023/08/20 06:58:34;;;;;;;10.65;4.50;;;19.10;99.90;;;;;;5074696;28;20075;-80
2023/08/20 07:01:06;;;;;;;10.57;4.25;;;19.20;99.90;;;;;;5070278;28;20098;-80
2023/08/20 07:03:33;;;;;;;12.88;4.82;;;19.30;99.90;;;;;;5074011;28;20534;-81
2023/08/20 07:05:59;;;;;;;12.45;4.47;;;19.40;99.90;;;;;;5074052;28;20495;-80
2023/08/20 07:08:24;;;;;;;10.93;3.83;;;19.50;99.90;;;;;;5074205;28;20115;-79
2023/08/20 07:10:50;;;;;;;13.23;4.22;;;19.60;99.90;;;;;;5073418;28;20170;-79
2023/08/20 07:13:16;;;;;;;12.55;4.40;;;19.70;99.90;;;;;;5073397;28;20110;-79
2023/08/20 07:15:41;;;;;;;13.85;4.22;;;19.80;99.90;;;;;;5066913;28;20114;-79
2023/08/20 07:18:07;;;;;;;13.02;4.38;;;19.90;99.90;;;;;;5065316;28;20040;-80
2023/08/20 07:20:32;;;;;;;9.88;4.25;;;20.10;99.90;;;;;;5092117;28;20036;-80
2023/08/20 07:22:58;;;;;;;14.30;4.00;;;20.20;99.90;;;;;;5073246;28;20066;-79
2023/08/20 07:25:23;;;;;;;11.02;4.05;;;20.30;99.90;;;;;;5069122;28;20079;-80
2023/08/20 07:27:50;;;;;;;10.05;3.75;;;20.30;99.90;;;;;;5073409;28;20528;-79
2023/08/20 07:30:16;;;;;;;7.90;3.50;;;20.40;99.90;;;;;;5062695;28;20123;-79
2023/08/20 07:32:42;;;;;;;11.20;3.58;;;20.50;99.90;;;;;;5072351;28;20143;-79
2023/08/20 07:35:08;;;;;;;15.63;3.38;;;20.60;99.90;;;;;;5066554;28;20085;-79
2023/08/20 07:37:33;;;;;;;13.10;3.58;;;20.70;99.90;;;;;;5073437;28;20110;-80
2023/08/20 07:39:59;;;;;;;11.15;3.75;;;20.90;99.90;;;;;;5073749;28;20445;-80
2023/08/20 07:42:24;;;;;;;10.82;3.45;;;21.00;99.90;;;;;;5071552;28;20072;-79
2023/08/20 07:44:50;;;;;;;10.25;3.65;;;21.00;99.90;;;;;;5057219;28;20067;-81
2023/08/20 07:47:15;;;;;;;11.77;3.63;;;21.10;99.90;;;;;;5075394;28;20123;-79
2023/08/20 07:49:41;;;;;;;9.25;3.22;;;21.10;99.90;;;;;;5073458;28;20038;-79
2023/08/20 07:52:06;;;;;;;9.38;3.35;;;21.30;99.90;;;;;;5054590;28;20028;-79
2023/08/20 07:54:32;;;;;;;11.05;3.67;;;21.30;99.90;;;;;;5069270;28;20499;-80
2023/08/20 07:56:57;;;;;;;12.25;3.83;;;21.40;99.90;;;;;;5074389;28;20074;-80
2023/08/20 07:59:23;;;;;;;8.18;3.17;;;21.50;99.90;;;;;;5071514;28;20035;-80
2023/08/20 08:01:48;;;;;;;13.30;3.20;;;21.60;99.90;;;;;;5066462;28;20056;-79
2023/08/20 08:04:15;;;;;;;9.65;2.85;;;21.70;99.90;;;;;;5066824;28;20036;-80
2023/08/20 08:06:40;;;;;;;8.77;3.33;;;21.80;99.90;;;;;;5062108;28;20044;-80
2023/08/20 08:09:26;;;;;;;12.38;3.58;;;21.90;99.90;;;;;;5071126;28;20512;-79
2023/08/20 08:11:52;;;;;;;12.30;3.60;;;22.00;99.90;;;;;;5073687;28;20071;-80
2023/08/20 08:14:18;;;;;;;10.05;3.28;;;22.20;99.90;;;;;;5073116;28;20119;-80
2023/08/20 08:16:45;;;;;;;13.32;2.75;;;22.30;99.90;;;;;;5072961;28;20028;-80
2023/08/20 08:19:11;;;;;;;8.85;2.85;;;22.30;99.90;;;;;;5073442;28;20426;-81
2023/08/20 08:21:37;;;;;;;11.02;3.10;;;22.30;99.90;;;;;;5073203;28;20032;-80
2023/08/20 08:24:03;;;;;;;10.13;3.00;;;22.40;99.90;;;;;;5074489;28;20036;-80
2023/08/20 08:26:30;;;;;;;10.70;2.78;;;22.50;99.90;;;;;;5073220;28;20028;-79
2023/08/20 08:28:55;;;;;;;10.95;2.80;;;22.50;99.90;;;;;;5057174;28;20098;-80
2023/08/20 08:31:21;;;;;;;9.40;2.60;;;22.60;99.90;;;;;;5072653;28;20499;-80
2023/08/20 08:33:47;;;;;;;9.80;2.55;;;22.60;99.90;;;;;;5089599;28;20043;-80
2023/08/20 08:36:12;;;;;;;7.30;2.35;;;22.70;99.90;;;;;;5073003;28;20064;-81
2023/08/20 08:38:38;;;;;;;11.13;2.58;;;22.80;99.90;;;;;;5074658;28;20032;-81
2023/08/20 08:41:12;;;;;;;6.88;2.00;;;22.80;99.90;;;;;;5057284;28;20090;-81
2023/08/20 08:43:39;;;;;;;8.30;2.35;;;22.80;99.90;;;;;;5070782;28;20043;-80
2023/08/20 08:46:07;;;;;;;7.25;2.00;;;22.80;99.90;;;;;;5071562;28;20081;-81
2023/08/20 08:48:35;;;;;;;9.90;2.60;;;22.90;99.90;;;;;;5073158;28;20119;-80
2023/08/20 08:51:02;;;;;;;9.68;2.63;;;23.00;99.90;;;;;;5056463;28;20455;-81
2023/08/20 08:53:29;;;;;;;7.50;2.15;;;23.10;99.90;;;;;;5073008;28;20039;-80
2023/08/20 08:55:54;;;;;;;9.23;2.17;;;23.10;99.90;;;;;;5071108;28;20102;-81
2023/08/20 08:58:20;;;;;;;10.32;2.30;;;23.10;99.90;;;;;;5073888;28;20496;-81
2023/08/20 09:00:46;;;;;;;10.20;2.03;;;23.20;99.90;;;;;;5072289;28;20108;-81
2023/08/20 09:03:11;;;;;;;6.85;1.95;;;23.20;99.90;;;;;;5072562;28;20040;-81
2023/08/20 09:05:58;;;;;;;9.27;1.70;;;23.20;99.90;;;;;;5070877;28;20078;-81
2023/08/20 09:08:30;;;;;;;9.48;1.83;;;23.00;99.90;;;;;;5071336;28;20610;-81
2023/08/20 09:10:57;;;;;;;8.32;1.75;;;22.70;99.90;;;;;;5070619;28;20102;-81
2023/08/20 09:13:43;;;;;;;4.95;1.50;;;22.60;99.90;;;;;;5072224;28;20056;-81
2023/08/20 09:16:10;;;;;;;6.25;1.80;;;22.50;99.90;;;;;;5069850;28;20032;-80
2023/08/20 09:18:42;;;;;;;6.55;1.85;;;22.60;99.90;;;;;;5075552;28;20113;-81
2023/08/20 09:21:09;;;;;;;9.10;1.75;;;22.70;99.90;;;;;;5069606;28;20066;-80
2023/08/20 09:23:35;;;;;;;7.68;2.13;;;22.80;99.90;;;;;;5074514;28;20530;-81
2023/08/20 09:26:05;;;;;;;6.10;1.80;;;22.90;99.90;;;;;;5074189;28;20032;-81
2023/08/20 09:28:45;;;;;;;7.25;1.75;;;23.00;99.90;;;;;;5075633;28;20064;-82
2023/08/20 09:31:11;;;;;;;5.75;1.63;;;23.10;99.90;;;;;;5071044;28;20074;-80
2023/08/20 09:33:37;;;;;;;7.95;1.70;;;23.20;99.90;;;;;;5074529;28;20043;-80
2023/08/20 09:36:07;;;;;;;7.40;1.63;;;23.20;99.90;;;;;;5074677;28;20122;-79
2023/08/20 09:38:39;;;;;;;6.85;1.58;;;23.30;99.90;;;;;;5075454;28;20094;-78
2023/08/20 09:41:08;;;;;;;7.60;1.40;;;23.20;99.90;;;;;;5075705;28;20051;-80
2023/08/20 09:43:38;;;;;;;6.85;1.48;;;23.20;99.90;;;;;;5075785;28;20122;-79
2023/08/20 09:46:05;;;;;;;5.78;1.50;;;23.30;99.90;;;;;;5075275;28;20044;-81
2023/08/20 09:48:35;;;;;;;6.68;1.70;;;23.40;99.90;;;;;;5058852;28;20040;-78
2023/08/20 09:51:04;;;;;;;8.65;1.88;;;23.40;99.90;;;;;;5075427;28;20040;-78
2023/08/20 09:53:42;;;;;;;6.60;1.60;;;23.20;99.90;;;;;;5074923;28;20495;-80
2023/08/20 09:56:14;;;;;;;5.53;1.50;;;23.10;99.90;;;;;;5074931;28;20081;-79
2023/08/20 09:58:41;;;;;;;6.93;1.83;;;23.00;99.90;;;;;;5057609;28;20086;-79
2023/08/20 10:01:07;;;;;;;6.05;2.10;;;23.10;99.90;;;;;;5075457;28;20380;-79
2023/08/20 10:03:33;;;;;;;7.38;1.70;;;23.20;99.90;;;;;;5083738;28;20041;-79
2023/08/20 10:06:00;;;;;;;6.72;1.85;;;23.30;99.90;;;;;;5075164;28;20189;-80
2023/08/20 10:08:27;;;;;;;6.40;1.60;;;23.40;99.90;;;;;;5075185;28;20111;-80
2023/08/20 10:10:52;;;;;;;8.95;1.98;;;23.50;99.90;;;;;;5075006;28;20035;-80
2023/08/20 10:13:18;;;;;;;7.10;2.00;;;23.60;99.90;;;;;;5075015;28;20044;-79
2023/08/20 10:15:45;;;;;;;6.95;1.73;;;23.60;99.90;;;;;;5072965;28;20039;-79
2023/08/20 10:18:11;;;;;;;6.38;1.60;;;23.70;99.90;;;;;;5074327;28;20040;-79
2023/08/20 10:20:39;;;;;;;5.75;1.60;;;23.70;99.90;;;;;;5074498;28;20067;-79
2023/08/20 10:23:05;;;;;;;5.75;1.65;;;23.70;99.90;;;;;;5074824;28;20050;-79
2023/08/20 10:25:30;;;;;;;5.85;1.77;;;23.80;99.90;;;;;;5073988;28;20130;-79
2023/08/20 10:28:19;;;;;;;4.43;1.50;;;23.90;99.90;;;;;;5074204;28;20074;-79
2023/08/20 10:31:11;;;;;;;5.70;1.95;;;24.00;99.90;;;;;;5074285;28;20063;-76
2023/08/20 10:33:39;;;;;;;4.72;1.60;;;24.00;99.90;;;;;;5071136;28;20028;-78
2023/08/20 10:36:22;;;;;;;5.30;1.70;;;24.00;99.90;;;;;;5073802;28;20048;-79
2023/08/20 10:38:49;;;;;;;3.50;1.45;;;24.20;99.90;;;;;;5074136;28;20119;-78
2023/08/20 10:41:16;;;;;;;4.75;1.40;;;24.30;99.90;;;;;;5068356;28;20051;-79
2023/08/20 10:43:49;;;;;;;4.70;1.60;;;24.50;99.90;;;;;;5074143;28;20407;-77
2023/08/20 10:46:18;;;;;;;5.72;1.63;;;24.50;99.90;;;;;;5073576;28;20051;-78
2023/08/20 10:48:50;;;;;;;6.68;1.63;;;24.70;99.90;;;;;;5072024;28;20435;-78
2023/08/20 10:51:19;;;;;;;5.97;1.63;;;24.80;99.90;;;;;;5073903;28;20109;-78
2023/08/20 10:53:59;;;;;;;4.88;1.50;;;25.00;99.90;;;;;;5073597;28;20043;-78
2023/08/20 10:56:41;;;;;;;4.60;1.35;;;25.20;99.90;;;;;;5073605;28;20036;-78
2023/08/20 10:59:08;;;;;;;5.60;1.98;;;25.30;99.90;;;;;;5067191;28;20044;-78
2023/08/20 11:01:34;;;;;;;7.15;2.03;;;25.40;99.90;;;;;;5073682;28;20046;-76
2023/08/20 11:04:06;;;;;;;6.93;1.85;;;25.40;99.90;;;;;;5065925;28;20043;-79
2023/08/20 11:06:34;;;;;;;7.28;2.20;;;25.40;99.90;;;;;;5073832;28;20051;-77
2023/08/20 11:09:00;;;;;;;6.28;1.60;;;25.30;99.90;;;;;;5073277;28;20032;-75
2023/08/20 11:11:26;;;;;;;7.15;1.83;;;25.10;99.90;;;;;;5073681;28;20040;-77
2023/08/20 11:13:51;;;;;;;10.00;2.00;;;24.80;99.90;;;;;;5073386;28;20031;-78
2023/08/20 11:16:19;;;;;;;6.85;1.98;;;24.80;99.90;;;;;;5073211;28;20035;-76
2023/08/20 11:18:44;;;;;;;7.45;2.05;;;24.90;99.90;;;;;;5073269;28;20047;-77
2023/08/20 11:21:10;;;;;;;5.38;1.48;;;25.10;99.90;;;;;;5073301;28;20442;-77
2023/08/20 11:23:37;;;;;;;7.95;1.60;;;25.30;99.90;;;;;;5056767;28;20468;-78
2023/08/20 11:26:03;;;;;;;6.28;1.33;;;25.50;99.90;;;;;;5056430;28;20036;-78
2023/08/20 11:28:29;;;;;;;5.05;1.50;;;25.70;99.90;;;;;;5073234;28;20062;-78
2023/08/20 11:30:56;;;;;;;8.57;1.20;;;26.00;99.90;;;;;;5073522;28;20085;-76
2023/08/20 11:33:22;;;;;;;5.28;1.40;;;26.20;99.90;;;;;;5072998;28;20036;-77
2023/08/20 11:35:48;;;;;;;4.18;1.10;;;26.40;99.90;;;;;;5073160;28;20451;-76
2023/08/20 11:38:14;;;;;;;4.00;1.13;;;26.50;99.90;;;;;;5055419;28;20067;-77
2023/08/20 11:40:39;;;;;;;5.32;1.10;;;26.60;99.90;;;;;;5073011;28;20075;-77
2023/08/20 11:43:06;;;;;;;6.00;1.30;;;26.70;99.90;;;;;;5073313;28;20067;-76
2023/08/20 11:45:32;;;;;;;5.22;1.20;;;26.60;99.90;;;;;;5073470;28;20092;-76
2023/08/20 11:47:58;;;;;;;4.45;1.25;;;26.30;99.90;;;;;;5055878;28;20036;-76
2023/08/20 11:50:24;;;;;;;5.22;1.35;;;26.10;99.90;;;;;;5073061;28;20028;-76
2023/08/20 11:52:52;;;;;;;4.40;1.30;;;26.10;99.90;;;;;;5055991;28;20040;-77
2023/08/20 11:55:23;;;;;;;4.82;1.40;;;26.00;99.90;;;;;;5072273;28;20042;-77
2023/08/20 11:57:57;;;;;;;5.30;1.10;;;25.90;99.90;;;;;;5072050;28;20040;-76
2023/08/20 12:00:27;;;;;;;3.70;1.30;;;26.20;99.90;;;;;;5072795;28;20043;-77
2023/08/20 12:02:57;;;;;;;4.03;1.00;;;26.30;99.90;;;;;;5072929;28;20040;-76
2023/08/20 12:05:27;;;;;;;6.18;1.40;;;26.60;99.90;;;;;;5072916;28;20043;-76
2023/08/20 12:07:57;;;;;;;5.55;1.55;;;26.90;99.90;;;;;;5064254;28;20098;-76
2023/08/20 12:10:24;;;;;;;4.95;1.13;;;27.10;99.90;;;;;;5073059;28;20083;-76
2023/08/20 12:12:50;;;;;;;6.60;1.00;;;27.30;99.90;;;;;;5070398;28;20051;-76
2023/08/20 12:15:18;;;;;;;5.28;1.17;;;27.60;99.90;;;;;;5073438;28;20105;-76
2023/08/20 12:17:43;;;;;;;5.72;1.33;;;27.80;99.90;;;;;;5072454;28;20048;-75
2023/08/20 12:20:12;;;;;;;5.35;1.52;;;28.00;99.90;;;;;;5070912;28;20734;-75
2023/08/20 12:22:39;;;;;;;5.03;1.25;;;27.80;99.90;;;;;;5076311;28;20039;-74
2023/08/20 12:25:06;;;;;;;5.90;1.33;;;27.80;99.90;;;;;;5074186;28;20048;-75
2023/08/20 12:27:32;;;;;;;5.70;1.48;;;27.40;99.90;;;;;;5058661;28;20060;-75
2023/08/20 12:29:57;;;;;;;6.22;1.60;;;27.70;99.90;;;;;;5073319;28;20063;-76
2023/08/20 12:32:23;;;;;;;6.40;1.33;;;27.60;99.90;;;;;;5069819;28;20176;-75
2023/08/20 12:34:48;;;;;;;4.22;1.30;;;28.00;99.90;;;;;;5072335;28;20078;-75
2023/08/20 12:37:14;;;;;;;5.30;1.20;;;28.00;99.90;;;;;;5090114;28;20036;-75
2023/08/20 12:39:39;;;;;;;4.97;1.15;;;27.60;99.90;;;;;;5074336;28;20047;-74
2023/08/20 12:42:05;;;;;;;3.78;1.00;;;27.20;99.90;;;;;;5071216;28;20047;-74